Circle Line Brooklyn — WDE8160 — position and weather

sailwx.info

Track history (hours):
 
Tides and Currents Weather Stations Pressure Air Temp Water Temp Dewpoint Dewpoint Depression Visibility Wind Speed Wind Dir Waves Ship Positions

Circle Line Brooklyn

Owner: Circle Line Sight Seeing Yachts Inc., New York, NY. More information available from US FCC via Universal Licensing System and Coast Guard Vessel Documentation Center.

Last reported at 2015-Apr-20 21:09 UTC. Time now 2015-Apr-21 01:30 UTC.
Position N 40°46' W 074°00'.

MMSI: 367402250.

Date/timePositionNaut miles runAvg speedWind from/ knotsBaromVisibWave heightAir tempDewpointWater temp
2015-Apr-20 21:09N 40°46' W 074°00'3 5.8
2015-Apr-20 20:34N 40°42' W 073°59'3 3.4
2015-Apr-20 19:33N 40°46' W 074°00'0 0.0
2015-Apr-20 18:33N 40°46' W 074°00'0 0.0
2015-Apr-20 17:33N 40°46' W 074°00'5 5.0
2015-Apr-20 16:33N 40°41' W 074°03'5 4.9
2015-Apr-20 15:33N 40°46' W 074°00'5 5.0
2015-Apr-20 14:33N 40°41' W 074°03'5 4.7
2015-Apr-20 13:31N 40°46' W 074°00'0 0.0
2015-Apr-19 21:22N 40°46' W 074°00'3 3.8
2015-Apr-19 20:33N 40°43' W 073°58'3 3.0
2015-Apr-19 19:33N 40°46' W 074°00'0 0.0
2015-Apr-19 18:33N 40°46' W 074°00'0 0.0
2015-Apr-19 17:33N 40°46' W 074°00'0 0.0
2015-Apr-19 16:33N 40°46' W 074°00'0 0.0
2015-Apr-19 15:33N 40°46' W 074°00'5 4.7
2015-Apr-19 14:33N 40°41' W 074°02'5 4.7
2015-Apr-19 13:33N 40°46' W 074°00'0 0.0
2015-Apr-19 02:30N 40°46' W 074°00'4 3.8
2015-Apr-19 01:33N 40°42' W 073°59'4 3.5
2015-Apr-19 00:33N 40°46' W 074°00'0 0.0
2015-Apr-18 23:33N 40°46' W 074°00'0 0.0
2015-Apr-18 22:33N 40°46' W 074°00'0 0.0
2015-Apr-18 21:33N 40°46' W 074°00'0 0.0
2015-Apr-18 20:34N 40°46' W 074°00'4 1.8
2015-Apr-18 18:34N 40°42' W 073°59'4 3.4
2015-Apr-18 17:31N 40°46' W 074°00'0 0.0
2015-Apr-18 16:33N 40°46' W 074°00'2 1.9
2015-Apr-18 15:15N 40°46' W 073°57'6 8.7
2015-Apr-18 14:33N 40°41' W 074°02'5 4.6
2015-Apr-18 13:33N 40°46' W 074°00'0 0.0
2015-Apr-18 00:33N 40°46' W 074°00'2 2.0
2015-Apr-17 23:33N 40°45' W 073°58'2 1.9
2015-Apr-17 22:31N 40°46' W 074°00'0 0.0
2015-Apr-17 21:31N 40°46' W 074°00'0 0.0
2015-Apr-17 20:33N 40°46' W 074°00'2 1.6
2015-Apr-17 19:05N 40°46' W 073°57'611.2
2015-Apr-17 18:33N 40°41' W 074°02'5 4.7
2015-Apr-17 17:33N 40°46' W 074°00'0 0.0
2015-Apr-17 16:33N 40°46' W 074°00'2 1.6
2015-Apr-17 15:09N 40°46' W 073°57'610.1
2015-Apr-17 14:33N 40°41' W 074°02'5 4.8
2015-Apr-17 13:32N 40°46' W 074°00'0 0.0
2015-Apr-16 21:31N 40°46' W 074°00'3 3.5
2015-Apr-16 20:33N 40°43' W 073°59'3 3.4
2015-Apr-16 19:33N 40°46' W 074°00'0 0.0
2015-Apr-16 18:31N 40°46' W 074°00'1 0.5
2015-Apr-16 17:33N 40°45' W 074°01'4 4.5
2015-Apr-16 16:33N 40°41' W 074°03'5 4.8
2015-Apr-16 15:32N 40°46' W 074°00'5 5.2
2015-Apr-16 14:33N 40°41' W 074°03'5 4.2
2015-Apr-16 13:21N 40°46' W 074°00'1 0.0
2015-Apr-14 20:34N 40°47' W 073°60'3 2.0
2015-Apr-14 19:13N 40°47' W 073°56'811.5
2015-Apr-14 18:33N 40°41' W 074°03'5 5.0
2015-Apr-14 17:33N 40°46' W 074°00'0 0.0
2015-Apr-14 16:33N 40°46' W 074°00'5 4.6
2015-Apr-14 15:30N 40°50' W 073°56'910.1
2015-Apr-14 14:34N 40°41' W 074°02'5 4.7
2015-Apr-14 13:33N 40°46' W 074°00'0 0.0
2015-Apr-14 12:30N 40°46' W 074°00'0 0.0
2015-Apr-13 21:21N 40°46' W 074°00'3 4.3
2015-Apr-13 20:33N 40°43' W 073°59'3 3.4
2015-Apr-13 19:34N 40°46' W 074°00'0 0.0
2015-Apr-13 18:33N 40°46' W 074°00'0 0.0
2015-Apr-13 17:33N 40°46' W 074°00'5 4.8
2015-Apr-13 16:33N 40°41' W 074°02'5 4.6
2015-Apr-13 15:32N 40°46' W 074°00'5 5.2
2015-Apr-13 14:33N 40°41' W 074°03'5 4.7
2015-Apr-13 13:29N 40°46' W 074°00'0 0.0
2015-Apr-13 00:32N 40°46' W 074°00'3 2.9
2015-Apr-12 23:34N 40°43' W 073°58'3 2.8
2015-Apr-12 22:33N 40°46' W 074°00'0 0.0
2015-Apr-12 21:33N 40°46' W 074°00'0 0.0
2015-Apr-12 20:33N 40°46' W 074°00'2 1.6
2015-Apr-12 19:11N 40°46' W 073°57'5 8.7
2015-Apr-12 18:33N 40°42' W 074°02'5 4.4
2015-Apr-12 17:32N 40°46' W 074°00'0 0.0
2015-Apr-12 16:32N 40°46' W 074°00'2 1.5
2015-Apr-12 15:05N 40°46' W 073°57'611.4
2015-Apr-12 14:33N 40°41' W 074°03'5 4.8
2015-Apr-12 13:31N 40°46' W 074°00'0 0.0
2015-Apr-12 02:33N 40°46' W 074°00'1 1.3
2015-Apr-12 01:34N 40°45' W 074°01'1 1.3
2015-Apr-12 00:32N 40°46' W 074°00'0 0.0
2015-Apr-11 23:32N 40°46' W 074°00'0 0.0
2015-Apr-11 22:32N 40°46' W 074°00'0 0.0
2015-Apr-11 21:32N 40°46' W 074°00'0 0.0
2015-Apr-11 20:32N 40°46' W 074°00'0 0.0
2015-Apr-11 19:32N 40°46' W 074°00'0 0.0
2015-Apr-11 18:32N 40°46' W 074°00'0 0.0
2015-Apr-11 17:32N 40°46' W 074°00'3 3.1
2015-Apr-11 16:34N 40°43' W 073°58'3 2.9
2015-Apr-11 15:33N 40°46' W 074°00'0 0.0
2015-Apr-11 14:33N 40°46' W 074°00'0 0.0
2015-Apr-11 13:33N 40°46' W 074°00'  
Track history (hours):
 
Tides and Currents Weather Stations Pressure Air Temp Water Temp Dewpoint Dewpoint Depression Visibility Wind Speed Wind Dir Waves Ship Positions

Circle Line Brooklyn

Owner: Circle Line Sight Seeing Yachts Inc., New York, NY. More information available from US FCC via Universal Licensing System and Coast Guard Vessel Documentation Center.

Last reported at 2015-Apr-20 21:09 UTC. Time now 2015-Apr-21 01:30 UTC.
Position N 40°46' W 074°00'.

MMSI: 367402250.

Date/timePositionNaut miles runAvg speedWind from/ knotsBaromVisibWave heightAir tempDewpointWater temp
2015-Apr-20 21:09N 40°46' W 074°00'3 5.8
2015-Apr-20 20:34N 40°42' W 073°59'3 3.4
2015-Apr-20 19:33N 40°46' W 074°00'0 0.0
2015-Apr-20 18:33N 40°46' W 074°00'0 0.0
2015-Apr-20 17:33N 40°46' W 074°00'5 5.0
2015-Apr-20 16:33N 40°41' W 074°03'5 4.9
2015-Apr-20 15:33N 40°46' W 074°00'5 5.0
2015-Apr-20 14:33N 40°41' W 074°03'5 4.7
2015-Apr-20 13:31N 40°46' W 074°00'0 0.0
2015-Apr-19 21:22N 40°46' W 074°00'3 3.8
2015-Apr-19 20:33N 40°43' W 073°58'3 3.0
2015-Apr-19 19:33N 40°46' W 074°00'0 0.0
2015-Apr-19 18:33N 40°46' W 074°00'0 0.0
2015-Apr-19 17:33N 40°46' W 074°00'0 0.0
2015-Apr-19 16:33N 40°46' W 074°00'0 0.0
2015-Apr-19 15:33N 40°46' W 074°00'5 4.7
2015-Apr-19 14:33N 40°41' W 074°02'5 4.7
2015-Apr-19 13:33N 40°46' W 074°00'0 0.0
2015-Apr-19 02:30N 40°46' W 074°00'4 3.8
2015-Apr-19 01:33N 40°42' W 073°59'4 3.5
2015-Apr-19 00:33N 40°46' W 074°00'0 0.0
2015-Apr-18 23:33N 40°46' W 074°00'0 0.0
2015-Apr-18 22:33N 40°46' W 074°00'0 0.0
2015-Apr-18 21:33N 40°46' W 074°00'0 0.0
2015-Apr-18 20:34N 40°46' W 074°00'4 1.8
2015-Apr-18 18:34N 40°42' W 073°59'4 3.4
2015-Apr-18 17:31N 40°46' W 074°00'0 0.0
2015-Apr-18 16:33N 40°46' W 074°00'2 1.9
2015-Apr-18 15:15N 40°46' W 073°57'6 8.7
2015-Apr-18 14:33N 40°41' W 074°02'5 4.6
2015-Apr-18 13:33N 40°46' W 074°00'0 0.0
2015-Apr-18 00:33N 40°46' W 074°00'2 2.0
2015-Apr-17 23:33N 40°45' W 073°58'2 1.9
2015-Apr-17 22:31N 40°46' W 074°00'0 0.0
2015-Apr-17 21:31N 40°46' W 074°00'0 0.0
2015-Apr-17 20:33N 40°46' W 074°00'2 1.6
2015-Apr-17 19:05N 40°46' W 073°57'611.2
2015-Apr-17 18:33N 40°41' W 074°02'5 4.7
2015-Apr-17 17:33N 40°46' W 074°00'0 0.0
2015-Apr-17 16:33N 40°46' W 074°00'2 1.6
2015-Apr-17 15:09N 40°46' W 073°57'610.1
2015-Apr-17 14:33N 40°41' W 074°02'5 4.8
2015-Apr-17 13:32N 40°46' W 074°00'0 0.0
2015-Apr-16 21:31N 40°46' W 074°00'3 3.5
2015-Apr-16 20:33N 40°43' W 073°59'3 3.4
2015-Apr-16 19:33N 40°46' W 074°00'0 0.0
2015-Apr-16 18:31N 40°46' W 074°00'1 0.5
2015-Apr-16 17:33N 40°45' W 074°01'4 4.5
2015-Apr-16 16:33N 40°41' W 074°03'5 4.8
2015-Apr-16 15:32N 40°46' W 074°00'5 5.2
2015-Apr-16 14:33N 40°41' W 074°03'5 4.2
2015-Apr-16 13:21N 40°46' W 074°00'1 0.0
2015-Apr-14 20:34N 40°47' W 073°60'3 2.0
2015-Apr-14 19:13N 40°47' W 073°56'811.5
2015-Apr-14 18:33N 40°41' W 074°03'5 5.0
2015-Apr-14 17:33N 40°46' W 074°00'0 0.0
2015-Apr-14 16:33N 40°46' W 074°00'5 4.6
2015-Apr-14 15:30N 40°50' W 073°56'910.1
2015-Apr-14 14:34N 40°41' W 074°02'5 4.7
2015-Apr-14 13:33N 40°46' W 074°00'0 0.0
2015-Apr-14 12:30N 40°46' W 074°00'0 0.0
2015-Apr-13 21:21N 40°46' W 074°00'3 4.3
2015-Apr-13 20:33N 40°43' W 073°59'3 3.4
2015-Apr-13 19:34N 40°46' W 074°00'0 0.0
2015-Apr-13 18:33N 40°46' W 074°00'0 0.0
2015-Apr-13 17:33N 40°46' W 074°00'5 4.8
2015-Apr-13 16:33N 40°41' W 074°02'5 4.6
2015-Apr-13 15:32N 40°46' W 074°00'5 5.2
2015-Apr-13 14:33N 40°41' W 074°03'5 4.7
2015-Apr-13 13:29N 40°46' W 074°00'0 0.0
2015-Apr-13 00:32N 40°46' W 074°00'3 2.9
2015-Apr-12 23:34N 40°43' W 073°58'3 2.8
2015-Apr-12 22:33N 40°46' W 074°00'0 0.0
2015-Apr-12 21:33N 40°46' W 074°00'0 0.0
2015-Apr-12 20:33N 40°46' W 074°00'2 1.6
2015-Apr-12 19:11N 40°46' W 073°57'5 8.7
2015-Apr-12 18:33N 40°42' W 074°02'5 4.4
2015-Apr-12 17:32N 40°46' W 074°00'0 0.0
2015-Apr-12 16:32N 40°46' W 074°00'2 1.5
2015-Apr-12 15:05N 40°46' W 073°57'611.4
2015-Apr-12 14:33N 40°41' W 074°03'5 4.8
2015-Apr-12 13:31N 40°46' W 074°00'0 0.0
2015-Apr-12 02:33N 40°46' W 074°00'1 1.3
2015-Apr-12 01:34N 40°45' W 074°01'1 1.3
2015-Apr-12 00:32N 40°46' W 074°00'0 0.0
2015-Apr-11 23:32N 40°46' W 074°00'0 0.0
2015-Apr-11 22:32N 40°46' W 074°00'0 0.0
2015-Apr-11 21:32N 40°46' W 074°00'0 0.0
2015-Apr-11 20:32N 40°46' W 074°00'0 0.0
2015-Apr-11 19:32N 40°46' W 074°00'0 0.0
2015-Apr-11 18:32N 40°46' W 074°00'0 0.0
2015-Apr-11 17:32N 40°46' W 074°00'3 3.1
2015-Apr-11 16:34N 40°43' W 073°58'3 2.9
2015-Apr-11 15:33N 40°46' W 074°00'0 0.0
2015-Apr-11 14:33N 40°46' W 074°00'0 0.0
2015-Apr-11 13:33N 40°46' W 074°00'  

Dump ship's entire track history